Terminal Aerodrome Forecast
Issued by NWS

Home | Current Version | Previous Version | Text Only | Print | Product List | Glossary On
Versions: 1 2 3 4 5 6 7 8 9 10 11 12 13 14 15
856
FTAK31 PAJN 171726
TAFAYA
TAF
PAYA 171726Z 1718/1818 05005KT P6SM -SHRA OVC030
     FM172100 06006KT P6SM SCT030 SCT050
     FM180600 VRB03KT 3SM BCFG SCT005
      AMD NOT SKED=

USA.gov is the U.S. government's official web portal to all federal, state and local government web resources and services.